Alona — 9HWM9 — position and weather

sailwx.info

Track history (hours):
 
Tides and Currents Weather Stations Pressure Air Temp Water Temp Dewpoint Dewpoint Depression Visibility Wind Speed Wind Dir Waves Ship Positions

Alona

Last reported at 2017-Oct-18 18:13 UTC. Time now 2017-Oct-19 02:00 UTC.
Position N 37°32' E 008°14'.

Length 292 m; draft 14.8 m.

Type: Cargo ship. MMSI: 249634000.

Date/timePositionNaut miles runAvg speedWind from/ knotsBaromVisibWave heightAir tempDewpointWater temp
2017-Oct-18 18:13N 37°32' E 008°14'311.1
2017-Oct-18 17:57N 37°32' E 008°10'511.0
2017-Oct-18 17:30N 37°31' E 008°04'15311.3
2017-Oct-18 03:58N 37°10' E 004°54'511.5
2017-Oct-18 03:30N 37°09' E 004°47'1711.9
2017-Oct-18 02:07N 37°06' E 004°27'111.7
2017-Oct-18 02:00N 37°06' E 004°25'611.8
2017-Oct-18 01:30N 37°05' E 004°18'612.0
2017-Oct-18 01:00N 37°05' E 004°10'612.2
2017-Oct-18 00:30N 37°04' E 004°03'712.1
2017-Oct-17 23:57N 37°03' E 003°54'511.9
2017-Oct-17 23:30N 37°02' E 003°48'1211.9
2017-Oct-17 22:28N 37°00' E 003°33'1211.9
2017-Oct-17 21:31N 36°58' E 003°18'1511.8
2017-Oct-17 20:16N 36°56' E 003°00'311.7
2017-Oct-17 20:01N 36°56' E 002°57'611.7
2017-Oct-17 19:29N 36°55' E 002°49'39111.8
2017-Oct-16 10:15N 35°59' W 005°12'311.4
2017-Oct-16 10:00N 35°59' W 005°16'611.3
2017-Oct-16 09:31N 35°58' W 005°23'611.3
2017-Oct-16 09:00N 35°57' W 005°29'85 9.5
2017-Oct-16 00:05N 35°58' W 007°15'210.7
2017-Oct-15 23:55N 35°58' W 007°17'410.4
2017-Oct-15 23:30N 35°59' W 007°22'510.5
2017-Oct-15 23:00N 35°60' W 007°29'510.4
2017-Oct-15 22:30N 36°00' W 007°35'611.0
2017-Oct-15 21:58N 36°01' W 007°42'510.4
2017-Oct-15 21:30N 36°01' W 007°48'510.5
2017-Oct-15 20:59N 36°02' W 007°55'1110.5
2017-Oct-15 19:54N 36°03' W 008°09'511.4
2017-Oct-15 19:30N 36°03' W 008°14'611.9
2017-Oct-15 18:59N 36°04' W 008°22'511.2
2017-Oct-15 18:30N 36°04' W 008°29'510.7
2017-Oct-15 18:00N 36°05' W 008°35'510.9
2017-Oct-15 17:30N 36°05' W 008°42'510.9
2017-Oct-15 17:00N 36°06' W 008°49'611.1
2017-Oct-15 16:30N 36°06' W 008°55'611.2
2017-Oct-15 16:01N 36°07' W 009°02'611.2
2017-Oct-15 15:30N 36°07' W 009°09'611.3
2017-Oct-15 15:00N 36°08' W 009°16'1111.4
2017-Oct-15 14:00N 36°09' W 009°30'611.6
2017-Oct-15 13:30N 36°09' W 009°37'611.4
2017-Oct-15 13:01N 36°10' W 009°44'611.0
2017-Oct-15 12:31N 36°10' W 009°51'510.7
2017-Oct-15 12:01N 36°11' W 009°58'611.0
2017-Oct-15 11:30N 36°11' W 010°05'611.1
2017-Oct-15 11:00N 36°12' W 010°11'611.1
2017-Oct-15 10:31N 36°12' W 010°18'611.0
2017-Oct-15 10:00N 36°13' W 010°25'510.9
2017-Oct-15 09:30N 36°13' W 010°32'510.9
2017-Oct-15 09:01N 36°13' W 010°39'611.0
2017-Oct-15 08:29N 36°14' W 010°46'511.1
2017-Oct-15 08:00N 36°15' W 010°52'611.6
2017-Oct-15 07:31N 36°17' W 010°59'611.7
2017-Oct-15 07:01N 36°19' W 011°06'611.9
2017-Oct-15 06:30N 36°21' W 011°13'711.9
2017-Oct-15 05:56N 36°24' W 011°21'511.9
2017-Oct-15 05:31N 36°25' W 011°27'611.6
2017-Oct-15 05:01N 36°27' W 011°33'611.6
2017-Oct-15 04:31N 36°29' W 011°40'611.9
2017-Oct-15 04:01N 36°31' W 011°47'612.0
2017-Oct-15 03:31N 36°33' W 011°54'611.9
2017-Oct-15 03:01N 36°35' W 012°01'611.5
2017-Oct-15 02:31N 36°37' W 012°08'611.5
2017-Oct-15 02:01N 36°38' W 012°15'611.5
2017-Oct-15 01:30N 36°40' W 012°22'611.4
2017-Oct-15 01:01N 36°42' W 012°28'611.3
2017-Oct-15 00:30N 36°44' W 012°35'611.2
2017-Oct-15 00:01N 36°46' W 012°42'1611.5
2017-Oct-14 22:36N 36°51' W 013°01'411.6
2017-Oct-14 22:17N 36°52' W 013°05'411.8
2017-Oct-14 21:55N 36°53' W 013°10'511.7
2017-Oct-14 21:31N 36°55' W 013°16'45311.6
2017-Oct-13 06:28N 38°53' W 022°29'611.3
2017-Oct-13 05:58N 38°55' W 022°36'511.6
2017-Oct-13 05:30N 38°56' W 022°43'611.6
2017-Oct-13 05:00N 38°57' W 022°50'611.6
2017-Oct-13 04:30N 38°58' W 022°58'611.8
2017-Oct-13 04:00N 38°59' W 023°05'611.7
2017-Oct-13 03:30N 39°01' W 023°12'611.7
2017-Oct-13 03:00N 39°02' W 023°20'611.7
2017-Oct-13 02:30N 39°03' W 023°27'611.6
2017-Oct-13 02:00N 39°04' W 023°35'611.6
2017-Oct-13 01:31N 39°05' W 023°42'811.8
2017-Oct-13 00:52N 39°06' W 023°51'811.8
2017-Oct-13 00:09N 39°08' W 024°02'211.8
2017-Oct-13 00:00N 39°09' W 024°04'912.1
2017-Oct-12 23:13N 39°11' W 024°16'312.3
2017-Oct-12 23:00N 39°11' W 024°20'712.1
2017-Oct-12 22:24N 39°13' W 024°29'2911.8
2017-Oct-12 20:00N 39°18' W 025°05'7711.9
2017-Oct-12 13:33N 39°32' W 026°43'211.2
2017-Oct-12 13:23N 39°32' W 026°45'511.3
2017-Oct-12 12:58N 39°33' W 026°51'611.1
2017-Oct-12 12:27N 39°34' W 026°58'1011.2
2017-Oct-12 11:35N 39°35' W 027°11'1111.1
2017-Oct-12 10:38N 39°37' W 027°24'210.9
2017-Oct-12 10:29N 39°37' W 027°26'511.4
2017-Oct-12 10:00N 39°38' W 027°33'611.4
2017-Oct-12 09:27N 39°39' W 027°42'1511.3
2017-Oct-12 08:06N 39°41' W 028°01'211.5
2017-Oct-12 07:55N 39°42' W 028°04'511.4
2017-Oct-12 07:30N 39°42' W 028°10'711.7
2017-Oct-12 06:56N 39°43' W 028°18'711.8
2017-Oct-12 06:19N 39°44' W 028°28'511.8
2017-Oct-12 05:54N 39°45' W 028°34'511.8
2017-Oct-12 05:30N 39°46' W 028°40'712.2
2017-Oct-12 04:57N 39°47' W 028°49'612.1
2017-Oct-12 04:29N 39°48' W 028°56'612.0
2017-Oct-12 03:58N 39°48' W 029°04'711.8
2017-Oct-12 03:21N 39°49' W 029°14'512.0
2017-Oct-12 02:56N 39°50' W 029°20'611.9
2017-Oct-12 02:27N 39°51' W 029°27'711.4
2017-Oct-12 01:50N 39°52' W 029°36'411.3
2017-Oct-12 01:28N 39°52' W 029°42'711.8
2017-Oct-12 00:53N 39°53' W 029°51'911.5
2017-Oct-12 00:06N 39°55' W 030°02'111.4
2017-Oct-12 00:00N 39°55' W 030°04'3111.7
2017-Oct-11 21:24N 39°59' W 030°43'911.8
2017-Oct-11 20:40N 39°60' W 030°54'1311.9
2017-Oct-11 19:36N 40°01' W 031°11'211.7
2017-Oct-11 19:28N 40°01' W 031°13'612.3
2017-Oct-11 19:00N 40°02' W 031°20'713.1
2017-Oct-11 18:26N 40°03' W 031°30'711.8
2017-Oct-11 17:49N 40°04' W 031°39'411.8
2017-Oct-11 17:26N 40°04' W 031°45'711.9
2017-Oct-11 16:49N 40°05' W 031°55'  
Track history (hours):
 
Tides and Currents Weather Stations Pressure Air Temp Water Temp Dewpoint Dewpoint Depression Visibility Wind Speed Wind Dir Waves Ship Positions

Alona

Last reported at 2017-Oct-18 18:13 UTC. Time now 2017-Oct-19 02:00 UTC.
Position N 37°32' E 008°14'.

Length 292 m; draft 14.8 m.

Type: Cargo ship. MMSI: 249634000.

Date/timePositionNaut miles runAvg speedWind from/ knotsBaromVisibWave heightAir tempDewpointWater temp
2017-Oct-18 18:13N 37°32' E 008°14'311.1
2017-Oct-18 17:57N 37°32' E 008°10'511.0
2017-Oct-18 17:30N 37°31' E 008°04'15311.3
2017-Oct-18 03:58N 37°10' E 004°54'511.5
2017-Oct-18 03:30N 37°09' E 004°47'1711.9
2017-Oct-18 02:07N 37°06' E 004°27'111.7
2017-Oct-18 02:00N 37°06' E 004°25'611.8
2017-Oct-18 01:30N 37°05' E 004°18'612.0
2017-Oct-18 01:00N 37°05' E 004°10'612.2
2017-Oct-18 00:30N 37°04' E 004°03'712.1
2017-Oct-17 23:57N 37°03' E 003°54'511.9
2017-Oct-17 23:30N 37°02' E 003°48'1211.9
2017-Oct-17 22:28N 37°00' E 003°33'1211.9
2017-Oct-17 21:31N 36°58' E 003°18'1511.8
2017-Oct-17 20:16N 36°56' E 003°00'311.7
2017-Oct-17 20:01N 36°56' E 002°57'611.7
2017-Oct-17 19:29N 36°55' E 002°49'39111.8
2017-Oct-16 10:15N 35°59' W 005°12'311.4
2017-Oct-16 10:00N 35°59' W 005°16'611.3
2017-Oct-16 09:31N 35°58' W 005°23'611.3
2017-Oct-16 09:00N 35°57' W 005°29'85 9.5
2017-Oct-16 00:05N 35°58' W 007°15'210.7
2017-Oct-15 23:55N 35°58' W 007°17'410.4
2017-Oct-15 23:30N 35°59' W 007°22'510.5
2017-Oct-15 23:00N 35°60' W 007°29'510.4
2017-Oct-15 22:30N 36°00' W 007°35'611.0
2017-Oct-15 21:58N 36°01' W 007°42'510.4
2017-Oct-15 21:30N 36°01' W 007°48'510.5
2017-Oct-15 20:59N 36°02' W 007°55'1110.5
2017-Oct-15 19:54N 36°03' W 008°09'511.4
2017-Oct-15 19:30N 36°03' W 008°14'611.9
2017-Oct-15 18:59N 36°04' W 008°22'511.2
2017-Oct-15 18:30N 36°04' W 008°29'510.7
2017-Oct-15 18:00N 36°05' W 008°35'510.9
2017-Oct-15 17:30N 36°05' W 008°42'510.9
2017-Oct-15 17:00N 36°06' W 008°49'611.1
2017-Oct-15 16:30N 36°06' W 008°55'611.2
2017-Oct-15 16:01N 36°07' W 009°02'611.2
2017-Oct-15 15:30N 36°07' W 009°09'611.3
2017-Oct-15 15:00N 36°08' W 009°16'1111.4
2017-Oct-15 14:00N 36°09' W 009°30'611.6
2017-Oct-15 13:30N 36°09' W 009°37'611.4
2017-Oct-15 13:01N 36°10' W 009°44'611.0
2017-Oct-15 12:31N 36°10' W 009°51'510.7
2017-Oct-15 12:01N 36°11' W 009°58'611.0
2017-Oct-15 11:30N 36°11' W 010°05'611.1
2017-Oct-15 11:00N 36°12' W 010°11'611.1
2017-Oct-15 10:31N 36°12' W 010°18'611.0
2017-Oct-15 10:00N 36°13' W 010°25'510.9
2017-Oct-15 09:30N 36°13' W 010°32'510.9
2017-Oct-15 09:01N 36°13' W 010°39'611.0
2017-Oct-15 08:29N 36°14' W 010°46'511.1
2017-Oct-15 08:00N 36°15' W 010°52'611.6
2017-Oct-15 07:31N 36°17' W 010°59'611.7
2017-Oct-15 07:01N 36°19' W 011°06'611.9
2017-Oct-15 06:30N 36°21' W 011°13'711.9
2017-Oct-15 05:56N 36°24' W 011°21'511.9
2017-Oct-15 05:31N 36°25' W 011°27'611.6
2017-Oct-15 05:01N 36°27' W 011°33'611.6
2017-Oct-15 04:31N 36°29' W 011°40'611.9
2017-Oct-15 04:01N 36°31' W 011°47'612.0
2017-Oct-15 03:31N 36°33' W 011°54'611.9
2017-Oct-15 03:01N 36°35' W 012°01'611.5
2017-Oct-15 02:31N 36°37' W 012°08'611.5
2017-Oct-15 02:01N 36°38' W 012°15'611.5
2017-Oct-15 01:30N 36°40' W 012°22'611.4
2017-Oct-15 01:01N 36°42' W 012°28'611.3
2017-Oct-15 00:30N 36°44' W 012°35'611.2
2017-Oct-15 00:01N 36°46' W 012°42'1611.5
2017-Oct-14 22:36N 36°51' W 013°01'411.6
2017-Oct-14 22:17N 36°52' W 013°05'411.8
2017-Oct-14 21:55N 36°53' W 013°10'511.7
2017-Oct-14 21:31N 36°55' W 013°16'45311.6
2017-Oct-13 06:28N 38°53' W 022°29'611.3
2017-Oct-13 05:58N 38°55' W 022°36'511.6
2017-Oct-13 05:30N 38°56' W 022°43'611.6
2017-Oct-13 05:00N 38°57' W 022°50'611.6
2017-Oct-13 04:30N 38°58' W 022°58'611.8
2017-Oct-13 04:00N 38°59' W 023°05'611.7
2017-Oct-13 03:30N 39°01' W 023°12'611.7
2017-Oct-13 03:00N 39°02' W 023°20'611.7
2017-Oct-13 02:30N 39°03' W 023°27'611.6
2017-Oct-13 02:00N 39°04' W 023°35'611.6
2017-Oct-13 01:31N 39°05' W 023°42'811.8
2017-Oct-13 00:52N 39°06' W 023°51'811.8
2017-Oct-13 00:09N 39°08' W 024°02'211.8
2017-Oct-13 00:00N 39°09' W 024°04'912.1
2017-Oct-12 23:13N 39°11' W 024°16'312.3
2017-Oct-12 23:00N 39°11' W 024°20'712.1
2017-Oct-12 22:24N 39°13' W 024°29'2911.8
2017-Oct-12 20:00N 39°18' W 025°05'7711.9
2017-Oct-12 13:33N 39°32' W 026°43'211.2
2017-Oct-12 13:23N 39°32' W 026°45'511.3
2017-Oct-12 12:58N 39°33' W 026°51'611.1
2017-Oct-12 12:27N 39°34' W 026°58'1011.2
2017-Oct-12 11:35N 39°35' W 027°11'1111.1
2017-Oct-12 10:38N 39°37' W 027°24'210.9
2017-Oct-12 10:29N 39°37' W 027°26'511.4
2017-Oct-12 10:00N 39°38' W 027°33'611.4
2017-Oct-12 09:27N 39°39' W 027°42'1511.3
2017-Oct-12 08:06N 39°41' W 028°01'211.5
2017-Oct-12 07:55N 39°42' W 028°04'511.4
2017-Oct-12 07:30N 39°42' W 028°10'711.7
2017-Oct-12 06:56N 39°43' W 028°18'711.8
2017-Oct-12 06:19N 39°44' W 028°28'511.8
2017-Oct-12 05:54N 39°45' W 028°34'511.8
2017-Oct-12 05:30N 39°46' W 028°40'712.2
2017-Oct-12 04:57N 39°47' W 028°49'612.1
2017-Oct-12 04:29N 39°48' W 028°56'612.0
2017-Oct-12 03:58N 39°48' W 029°04'711.8
2017-Oct-12 03:21N 39°49' W 029°14'512.0
2017-Oct-12 02:56N 39°50' W 029°20'611.9
2017-Oct-12 02:27N 39°51' W 029°27'711.4
2017-Oct-12 01:50N 39°52' W 029°36'411.3
2017-Oct-12 01:28N 39°52' W 029°42'711.8
2017-Oct-12 00:53N 39°53' W 029°51'911.5
2017-Oct-12 00:06N 39°55' W 030°02'111.4
2017-Oct-12 00:00N 39°55' W 030°04'3111.7
2017-Oct-11 21:24N 39°59' W 030°43'911.8
2017-Oct-11 20:40N 39°60' W 030°54'1311.9
2017-Oct-11 19:36N 40°01' W 031°11'211.7
2017-Oct-11 19:28N 40°01' W 031°13'612.3
2017-Oct-11 19:00N 40°02' W 031°20'713.1
2017-Oct-11 18:26N 40°03' W 031°30'711.8
2017-Oct-11 17:49N 40°04' W 031°39'411.8
2017-Oct-11 17:26N 40°04' W 031°45'711.9
2017-Oct-11 16:49N 40°05' W 031°55'  

Dump ship's entire track history